createdAt,value
2019-03-06T00:00:42.857Z,130.01
2019-03-06T00:01:43.180Z,130.25
2019-03-06T00:02:43.424Z,130.20
2019-03-06T00:03:43.752Z,130.73
2019-03-06T00:04:43.960Z,131.01
2019-03-06T00:05:44.231Z,130.51
2019-03-06T00:06:44.548Z,130.34
2019-03-06T00:07:44.806Z,131.02
2019-03-06T00:08:45.102Z,130.45
2019-03-06T00:09:45.366Z,130.08
2019-03-06T00:10:45.646Z,131.38
2019-03-06T00:11:45.956Z,129.88
2019-03-06T00:12:46.241Z,130.25
2019-03-06T00:13:46.497Z,129.74
2019-03-06T00:14:46.752Z,131.21
2019-03-06T00:15:47.029Z,131.34
2019-03-06T00:16:47.340Z,130.08
2019-03-06T00:17:47.581Z,129.66
2019-03-06T00:18:47.859Z,130.38
2019-03-06T00:19:48.145Z,131.10
2019-03-06T00:20:48.506Z,130.96
2019-03-06T00:21:48.698Z,129.71
2019-03-06T00:22:48.938Z,130.23
2019-03-06T00:23:49.235Z,129.97
2019-03-06T00:24:49.524Z,130.65
2019-03-06T00:25:54.661Z,129.79
2019-03-06T00:26:50.102Z,130.82
2019-03-06T00:27:50.345Z,130.96
2019-03-06T00:28:50.739Z,130.82
2019-03-06T00:30:04.632Z,131.10
2019-03-06T00:30:52.183Z,131.46
2019-03-06T00:31:51.472Z,131.03
2019-03-06T00:32:51.734Z,130.61
2019-03-06T00:33:51.991Z,131.24
2019-03-06T00:34:52.297Z,130.42
2019-03-06T00:35:52.575Z,130.34
2019-03-06T00:36:52.943Z,130.96
2019-03-06T00:37:53.132Z,130.84
2019-03-06T00:38:53.378Z,131.10
2019-03-06T00:39:53.673Z,130.68
2019-03-06T00:40:53.974Z,130.39
2019-03-06T00:41:54.277Z,131.26
2019-03-06T00:42:54.526Z,130.62
2019-03-06T00:43:54.802Z,130.60
2019-03-06T00:44:55.126Z,130.65
2019-03-06T00:45:55.329Z,130.20
2019-03-06T00:46:55.640Z,129.64
2019-03-06T00:47:55.889Z,131.22
2019-03-06T00:48:56.170Z,130.71
2019-03-06T00:49:56.477Z,129.69
2019-03-06T00:50:56.714Z,131.21
2019-03-06T00:51:57.030Z,130.69
2019-03-06T00:52:57.338Z,131.03
2019-03-06T00:53:57.649Z,131.25
2019-03-06T00:54:57.862Z,129.83
2019-03-06T00:55:58.580Z,130.40
2019-03-06T00:56:58.405Z,130.58
2019-03-06T00:57:58.670Z,130.58
2019-03-06T00:58:58.945Z,129.52
2019-03-06T00:59:59.238Z,129.88
2019-03-06T01:00:59.504Z,130.93
2019-03-06T01:01:59.895Z,130.72
2019-03-06T01:03:00.049Z,130.36
2019-03-06T01:04:00.327Z,131.29
2019-03-06T01:05:00.611Z,130.79
2019-03-06T01:06:00.871Z,130.58
2019-03-06T01:07:01.162Z,130.13
2019-03-06T01:08:01.419Z,130.60
2019-03-06T01:09:01.709Z,130.95
2019-03-06T01:10:02.053Z,130.23
2019-03-06T01:11:02.254Z,130.07
2019-03-06T01:12:02.560Z,130.71
2019-03-06T01:13:02.792Z,131.18
2019-03-06T01:14:03.085Z,131.28
2019-03-06T01:15:03.364Z,130.43
2019-03-06T01:16:03.639Z,129.80
2019-03-06T01:17:03.936Z,129.69
2019-03-06T01:18:04.206Z,130.77
2019-03-06T01:19:04.447Z,130.27
2019-03-06T01:20:04.750Z,130.77
2019-03-06T01:21:05.019Z,130.29
2019-03-06T01:22:05.320Z,130.03
2019-03-06T01:23:05.564Z,129.94
2019-03-06T01:24:05.825Z,130.70
2019-03-06T01:25:06.132Z,130.48
2019-03-06T01:26:06.474Z,130.46
2019-03-06T01:27:06.972Z,105.69
2019-03-06T01:28:06.964Z,105.69
2019-03-06T01:29:07.244Z,105.69
2019-03-06T01:30:07.519Z,105.69
2019-03-06T01:31:07.794Z,105.69
2019-03-06T01:32:08.102Z,105.69
2019-03-06T01:33:08.360Z,105.69
2019-03-06T01:34:08.740Z,105.69
2019-03-06T01:35:09.037Z,105.69
2019-03-06T01:36:09.189Z,105.69
2019-03-06T01:37:09.511Z,105.69
2019-03-06T01:38:09.775Z,105.69
2019-03-06T01:39:10.037Z,105.69
2019-03-06T01:40:10.329Z,105.69
2019-03-06T01:41:10.567Z,105.69
2019-03-06T01:42:10.860Z,105.69
2019-03-06T01:43:11.293Z,105.69
2019-03-06T01:44:11.447Z,105.69
2019-03-06T01:45:11.747Z,105.69
2019-03-06T01:46:11.987Z,105.69
2019-03-06T01:47:12.283Z,105.69
2019-03-06T01:48:12.584Z,105.69
2019-03-06T01:49:12.833Z,105.69
2019-03-06T01:50:13.127Z,105.69
2019-03-06T01:51:13.446Z,105.69
2019-03-06T01:52:13.648Z,105.69
2019-03-06T01:53:13.998Z,105.69
2019-03-06T01:54:14.222Z,105.69
2019-03-06T01:55:14.520Z,105.69
2019-03-06T01:56:14.816Z,105.69
2019-03-06T01:57:15.051Z,105.69
2019-03-06T01:58:15.346Z,105.69
2019-03-06T01:59:15.668Z,105.69
2019-03-06T02:00:15.874Z,105.69
2019-03-06T02:01:16.140Z,105.69
2019-03-06T02:02:16.420Z,105.69
2019-03-06T02:03:16.723Z,105.69
2019-03-06T02:04:16.973Z,105.69
2019-03-06T02:05:17.272Z,105.69
2019-03-06T02:06:17.534Z,105.69
2019-03-06T02:07:17.827Z,105.69
2019-03-06T02:08:18.177Z,105.69
2019-03-06T02:09:18.372Z,105.69
2019-03-06T02:10:18.666Z,105.69
2019-03-06T02:11:18.928Z,105.69
2019-03-06T02:12:19.206Z,105.69
2019-03-06T02:13:19.496Z,105.69
2019-03-06T02:14:19.763Z,105.69
2019-03-06T02:15:20.040Z,105.69
2019-03-06T02:16:20.396Z,105.69
2019-03-06T02:17:20.584Z,105.69
2019-03-06T02:18:20.872Z,105.69
2019-03-06T02:19:21.122Z,105.69
2019-03-06T02:20:21.431Z,105.69
2019-03-06T02:21:21.708Z,105.69
2019-03-06T02:22:21.984Z,105.69
2019-03-06T02:23:22.271Z,105.69
2019-03-06T02:24:22.628Z,105.69
2019-03-06T02:25:22.801Z,105.69
2019-03-06T02:26:23.078Z,105.69
2019-03-06T02:27:23.353Z,105.69
2019-03-06T02:28:23.641Z,105.69
2019-03-06T02:29:23.914Z,105.69
2019-03-06T02:30:24.209Z,105.69
2019-03-06T02:31:24.443Z,105.69
2019-03-06T02:32:24.789Z,105.69
2019-03-06T02:33:25.017Z,105.69
2019-03-06T02:34:25.284Z,105.69
2019-03-06T02:35:25.571Z,105.69
2019-03-06T02:36:25.825Z,105.69
2019-03-06T02:37:26.084Z,105.69
2019-03-06T02:38:26.398Z,105.69
2019-03-06T02:39:26.661Z,105.69
2019-03-06T02:40:26.969Z,105.69
2019-03-06T02:41:27.275Z,105.69
2019-03-06T02:42:27.482Z,105.69
2019-03-06T02:43:27.793Z,105.69
2019-03-06T02:44:28.067Z,105.69
2019-03-06T02:45:28.327Z,105.69
2019-03-06T02:46:28.631Z,105.69
2019-03-06T02:47:28.904Z,105.69
2019-03-06T02:48:29.192Z,105.69
2019-03-06T02:49:29.574Z,105.69
2019-03-06T02:50:29.726Z,105.69
2019-03-06T02:51:30.019Z,105.69
2019-03-06T02:52:30.275Z,105.69
2019-03-06T02:53:30.555Z,105.69
2019-03-06T02:54:30.835Z,105.69
2019-03-06T02:55:31.101Z,105.69
2019-03-06T02:56:31.398Z,105.69
2019-03-06T02:57:31.772Z,105.69
2019-03-06T02:58:31.947Z,105.69
2019-03-06T02:59:32.244Z,105.69
2019-03-06T03:00:32.517Z,105.69
2019-03-06T03:01:32.794Z,105.69
2019-03-06T03:02:33.057Z,105.69
2019-03-06T03:03:33.352Z,105.69
2019-03-06T03:04:33.604Z,105.69
2019-03-06T03:05:33.977Z,105.69
2019-03-06T03:06:34.389Z,105.69
2019-03-06T03:07:34.434Z,105.69
2019-03-06T03:08:34.717Z,105.69
2019-03-06T03:09:34.986Z,105.69
2019-03-06T03:10:35.269Z,105.69
2019-03-06T03:11:35.547Z,105.69
2019-03-06T03:12:35.806Z,105.69
2019-03-06T03:13:36.156Z,105.69
2019-03-06T03:14:36.432Z,105.69
2019-03-06T03:15:36.609Z,105.69
2019-03-06T03:16:36.926Z,105.69
2019-03-06T03:17:37.195Z,105.69
2019-03-06T03:18:37.493Z,105.69
2019-03-06T03:19:37.771Z,105.69
2019-03-06T03:20:38.030Z,105.69
2019-03-06T03:21:38.315Z,105.69
2019-03-06T03:22:38.667Z,105.69
2019-03-06T03:23:38.895Z,105.69
2019-03-06T03:24:39.168Z,105.69
2019-03-06T03:25:39.422Z,105.69
2019-03-06T03:26:39.720Z,105.69
2019-03-06T03:27:39.959Z,105.69
2019-03-06T03:28:40.271Z,105.69
2019-03-06T03:29:40.550Z,105.69
2019-03-06T03:30:40.950Z,105.69
2019-03-06T03:31:41.086Z,105.69
2019-03-06T03:32:41.436Z,105.69
2019-03-06T03:33:41.672Z,105.69
2019-03-06T03:34:41.956Z,105.69
2019-03-06T03:35:42.211Z,105.69
2019-03-06T03:36:42.512Z,105.69
2019-03-06T03:37:42.750Z,105.69
2019-03-06T03:38:43.098Z,105.69
2019-03-06T03:39:43.311Z,105.69
2019-03-06T03:40:43.589Z,105.69
2019-03-06T03:41:43.877Z,105.69
2019-03-06T03:42:44.130Z,105.69
2019-03-06T03:43:44.398Z,105.69
2019-03-06T03:44:44.721Z,105.69
2019-03-06T03:45:44.969Z,105.69
2019-03-06T03:46:45.297Z,105.69
2019-03-06T03:47:45.503Z,105.69
2019-03-06T03:48:45.771Z,105.69
2019-03-06T03:49:46.074Z,105.69
2019-03-06T03:50:46.353Z,105.69
2019-03-06T03:51:46.643Z,105.69
2019-03-06T03:52:46.918Z,105.69
2019-03-06T03:53:47.192Z,105.69
2019-03-06T03:54:47.538Z,105.69
2019-03-06T03:55:47.765Z,105.69
2019-03-06T03:56:48.051Z,105.69
2019-03-06T03:57:48.309Z,105.69
2019-03-06T03:58:48.587Z,105.69
2019-03-06T03:59:48.889Z,105.69
2019-03-06T04:00:49.131Z,105.69
2019-03-06T04:01:49.433Z,105.69
2019-03-06T04:02:49.713Z,130.86
2019-03-06T04:03:50.111Z,130.51
2019-03-06T04:04:50.303Z,129.91
2019-03-06T04:05:50.513Z,130.48
2019-03-06T04:06:50.819Z,129.47
2019-03-06T04:07:51.077Z,129.50
2019-03-06T04:08:51.357Z,130.80
2019-03-06T04:09:51.682Z,129.59
2019-03-06T04:10:51.929Z,129.67
2019-03-06T04:11:52.300Z,130.70
2019-03-06T04:12:52.457Z,130.12
2019-03-06T04:13:52.733Z,129.69
2019-03-06T04:14:53.049Z,130.34
2019-03-06T04:15:53.285Z,129.45
2019-03-06T04:16:53.568Z,130.32
2019-03-06T04:17:53.836Z,129.46
2019-03-06T04:18:54.132Z,129.59
2019-03-06T04:19:54.501Z,129.63
2019-03-06T04:20:54.665Z,130.33
2019-03-06T04:21:54.973Z,130.14
2019-03-06T04:22:55.212Z,105.69
2019-03-06T04:23:55.504Z,105.69
2019-03-06T04:24:55.825Z,105.69
2019-03-06T04:25:56.056Z,105.69
2019-03-06T04:26:56.346Z,105.69
2019-03-06T04:27:56.625Z,105.69
2019-03-06T04:28:56.870Z,105.69
2019-03-06T04:29:57.223Z,105.69
2019-03-06T04:30:57.449Z,105.69
2019-03-06T04:31:57.736Z,105.69
2019-03-06T04:32:58.008Z,105.69
2019-03-06T04:33:58.268Z,105.69
2019-03-06T04:34:58.592Z,105.69
2019-03-06T04:35:58.892Z,105.69
2019-03-06T04:36:59.201Z,105.69
2019-03-06T04:37:59.385Z,105.69
2019-03-06T04:38:59.644Z,105.69
2019-03-06T04:40:00.303Z,105.69
2019-03-06T04:41:00.230Z,105.69
2019-03-06T04:42:00.532Z,105.69
2019-03-06T04:43:00.783Z,105.69
2019-03-06T04:44:01.299Z,105.69
2019-03-06T04:45:01.512Z,105.69
2019-03-06T04:46:01.605Z,105.69
2019-03-06T04:47:01.880Z,105.69
2019-03-06T04:48:02.154Z,105.69
2019-03-06T04:49:02.438Z,105.69
2019-03-06T04:50:02.775Z,105.69
2019-03-06T04:51:02.978Z,105.69
2019-03-06T04:52:03.275Z,105.69
2019-03-06T04:53:03.650Z,105.69
2019-03-06T04:54:03.838Z,105.69
2019-03-06T04:55:04.157Z,105.69
2019-03-06T04:56:04.370Z,105.69
2019-03-06T04:57:04.664Z,105.69
2019-03-06T04:58:04.950Z,105.69
2019-03-06T04:59:05.232Z,105.69
2019-03-06T05:00:05.779Z,105.69
2019-03-06T05:01:05.822Z,105.69
2019-03-06T05:02:06.034Z,105.69
2019-03-06T05:03:06.353Z,105.69
2019-03-06T05:04:06.599Z,105.69
2019-03-06T05:05:06.918Z,105.69
2019-03-06T05:06:07.160Z,105.69
2019-03-06T05:07:07.440Z,105.69
2019-03-06T05:08:07.747Z,105.69
2019-03-06T05:09:08.046Z,105.69
2019-03-06T05:10:08.385Z,105.69
2019-03-06T05:11:08.546Z,105.69
2019-03-06T05:12:08.810Z,105.69
2019-03-06T05:13:09.098Z,105.69
2019-03-06T05:14:09.373Z,105.69
2019-03-06T05:15:09.723Z,105.69
2019-03-06T05:16:09.927Z,105.69
2019-03-06T05:17:10.209Z,105.69
2019-03-06T05:18:10.648Z,105.69
2019-03-06T05:19:10.753Z,105.69
2019-03-06T05:20:11.089Z,105.69
2019-03-06T05:21:11.306Z,105.69
2019-03-06T05:22:11.577Z,105.69
2019-03-06T05:23:11.871Z,105.69
2019-03-06T05:24:12.120Z,105.69
2019-03-06T05:25:12.462Z,105.69
2019-03-06T05:26:12.834Z,105.69
2019-03-06T05:27:12.974Z,105.69
2019-03-06T05:28:13.276Z,105.69
2019-03-06T05:29:13.514Z,105.69
2019-03-06T05:30:13.850Z,105.69
2019-03-06T05:31:14.097Z,105.69
2019-03-06T05:32:14.375Z,105.69
2019-03-06T05:33:14.671Z,105.69
2019-03-06T05:34:15.607Z,105.69
2019-03-06T05:35:15.220Z,105.69
2019-03-06T05:36:15.476Z,105.69
2019-03-06T05:37:15.770Z,105.69
2019-03-06T05:38:16.609Z,105.69
2019-03-06T05:39:16.316Z,105.69
2019-03-06T05:40:16.644Z,105.69
2019-03-06T05:41:16.846Z,105.69
2019-03-06T05:42:17.177Z,105.69
2019-03-06T05:43:17.434Z,105.69
2019-03-06T05:44:17.697Z,105.69
2019-03-06T05:45:18.019Z,105.69
2019-03-06T05:46:18.250Z,105.69
2019-03-06T05:47:18.503Z,105.69
2019-03-06T05:48:18.821Z,105.69
2019-03-06T05:49:19.080Z,105.69
2019-03-06T05:50:20.257Z,105.69
2019-03-06T05:51:19.789Z,105.69
2019-03-06T05:52:19.909Z,105.69
2019-03-06T05:53:20.221Z,105.69
2019-03-06T05:54:20.481Z,105.69
2019-03-06T05:55:20.791Z,105.69
2019-03-06T05:56:21.036Z,105.69
2019-03-06T05:57:21.315Z,105.69
2019-03-06T05:58:21.589Z,105.69
2019-03-06T05:59:21.966Z,105.69
2019-03-06T06:00:22.206Z,105.69
2019-03-06T06:01:22.493Z,105.69
2019-03-06T06:02:22.772Z,105.69
2019-03-06T06:03:23.044Z,105.69
2019-03-06T06:04:23.350Z,105.69
2019-03-06T06:05:23.604Z,105.69
2019-03-06T06:06:23.898Z,105.69
2019-03-06T06:07:24.252Z,105.69
2019-03-06T06:08:24.432Z,105.69
2019-03-06T06:09:24.705Z,105.69
2019-03-06T06:10:24.980Z,105.69
2019-03-06T06:11:25.284Z,105.69
2019-03-06T06:12:25.534Z,105.69
2019-03-06T06:13:25.830Z,105.69
2019-03-06T06:14:26.088Z,105.69
2019-03-06T06:15:26.393Z,105.69
2019-03-06T06:16:26.651Z,105.69
2019-03-06T06:17:26.906Z,105.69
2019-03-06T06:18:27.274Z,105.69
2019-03-06T06:19:27.463Z,105.69
2019-03-06T06:20:27.723Z,105.69
2019-03-06T06:21:28.305Z,105.69
2019-03-06T06:22:28.559Z,105.69
2019-03-06T06:23:29.112Z,105.69
2019-03-06T06:24:29.198Z,105.69
2019-03-06T06:25:29.368Z,105.69
2019-03-06T06:26:29.674Z,105.69
2019-03-06T06:27:29.937Z,105.69
2019-03-06T06:28:30.229Z,105.69
2019-03-06T06:29:30.491Z,105.69
2019-03-06T06:30:30.768Z,105.69
2019-03-06T06:31:31.105Z,105.69
2019-03-06T06:32:32.865Z,105.69
2019-03-06T06:33:31.620Z,105.69
2019-03-06T06:34:31.877Z,105.69
2019-03-06T06:35:32.149Z,105.69
2019-03-06T06:36:32.452Z,105.69
2019-03-06T06:37:32.687Z,105.69
2019-03-06T06:38:33.019Z,105.69
2019-03-06T06:39:33.277Z,105.69
2019-03-06T06:40:35.552Z,105.69
2019-03-06T06:41:33.816Z,105.69
2019-03-06T06:42:34.053Z,105.69
2019-03-06T06:43:34.373Z,105.69
2019-03-06T06:44:34.649Z,105.69
2019-03-06T06:45:34.908Z,105.69
2019-03-06T06:46:35.196Z,105.69
2019-03-06T06:47:35.460Z,105.69
2019-03-06T06:48:35.778Z,105.69
2019-03-06T06:49:36.017Z,105.69
2019-03-06T06:50:36.280Z,105.69
2019-03-06T06:51:36.573Z,105.69
2019-03-06T06:52:36.843Z,105.69
2019-03-06T06:53:37.122Z,105.69
2019-03-06T06:54:37.366Z,105.69
2019-03-06T06:55:37.658Z,105.69
2019-03-06T06:56:37.986Z,105.69
2019-03-06T06:57:38.255Z,105.69
2019-03-06T06:58:38.505Z,105.69
2019-03-06T06:59:38.759Z,105.69
2019-03-06T07:00:39.048Z,105.69
2019-03-06T07:01:39.364Z,105.69
2019-03-06T07:02:39.676Z,105.69
2019-03-06T07:03:39.913Z,105.69
2019-03-06T07:04:40.198Z,105.69
2019-03-06T07:05:40.635Z,105.69
2019-03-06T07:06:40.742Z,105.69
2019-03-06T07:07:40.999Z,105.69
2019-03-06T07:08:41.280Z,105.69
2019-03-06T07:09:41.552Z,105.69
2019-03-06T07:10:41.824Z,105.69
2019-03-06T07:11:42.124Z,105.69
2019-03-06T07:12:42.416Z,105.69
2019-03-06T07:13:42.769Z,105.69
2019-03-06T07:14:42.966Z,105.69
2019-03-06T07:15:43.251Z,105.69
2019-03-06T07:16:43.542Z,105.69
2019-03-06T07:17:43.810Z,105.69
2019-03-06T07:18:44.079Z,105.69
2019-03-06T07:19:44.371Z,105.69
2019-03-06T07:20:44.664Z,105.69
2019-03-06T07:21:44.995Z,105.69
2019-03-06T07:22:45.176Z,105.69
2019-03-06T07:23:45.467Z,105.69
2019-03-06T07:24:45.761Z,105.69
2019-03-06T07:25:46.039Z,105.69
2019-03-06T07:26:46.327Z,105.69
2019-03-06T07:27:46.569Z,105.69
2019-03-06T07:28:46.849Z,105.69
2019-03-06T07:29:47.207Z,105.69
2019-03-06T07:30:47.396Z,105.69
2019-03-06T07:31:47.683Z,105.69
2019-03-06T07:32:47.963Z,105.69
2019-03-06T07:33:48.227Z,105.69
2019-03-06T07:34:48.526Z,105.69
2019-03-06T07:35:48.800Z,105.69
2019-03-06T07:36:49.085Z,105.69
2019-03-06T07:37:49.411Z,105.69
2019-03-06T07:38:49.676Z,105.69
2019-03-06T07:39:49.917Z,105.69
2019-03-06T07:40:50.175Z,105.69
2019-03-06T07:41:50.478Z,105.69
2019-03-06T07:42:50.738Z,105.69
2019-03-06T07:43:50.994Z,105.69
2019-03-06T07:44:51.299Z,105.69
2019-03-06T07:45:51.593Z,105.69
2019-03-06T07:46:51.953Z,105.69
2019-03-06T07:47:52.124Z,105.69
2019-03-06T07:48:52.411Z,105.69
2019-03-06T07:49:52.690Z,105.69
2019-03-06T07:50:52.948Z,105.69
2019-03-06T07:51:53.251Z,105.69
2019-03-06T07:52:53.515Z,105.69
2019-03-06T07:53:53.803Z,105.69
2019-03-06T07:54:54.178Z,105.69
2019-03-06T07:55:54.327Z,105.69
2019-03-06T07:56:54.626Z,105.69
2019-03-06T07:57:54.885Z,105.69
2019-03-06T07:58:55.448Z,105.69
2019-03-06T07:59:55.447Z,105.69
2019-03-06T08:00:55.698Z,105.69
2019-03-06T08:01:56.021Z,105.69
2019-03-06T08:02:56.314Z,105.69
2019-03-06T08:03:56.523Z,105.69
2019-03-06T08:04:56.822Z,105.69
2019-03-06T08:05:57.082Z,105.69
2019-03-06T08:06:57.369Z,105.69
2019-03-06T08:07:57.632Z,105.69
2019-03-06T08:08:57.934Z,105.69
2019-03-06T08:09:58.222Z,105.69
2019-03-06T08:10:58.520Z,105.69
2019-03-06T08:11:58.755Z,105.69
2019-03-06T08:12:59.032Z,105.69
2019-03-06T08:13:59.325Z,105.69
2019-03-06T08:14:59.607Z,105.69
2019-03-06T08:15:59.867Z,105.69
2019-03-06T08:17:00.154Z,105.69
2019-03-06T08:18:00.407Z,105.69
2019-03-06T08:19:00.724Z,105.69
2019-03-06T08:20:01.134Z,105.69
2019-03-06T08:21:01.263Z,105.69
2019-03-06T08:22:01.528Z,105.69
2019-03-06T08:23:01.836Z,105.69
2019-03-06T08:24:02.139Z,105.69
2019-03-06T08:25:02.421Z,105.69
2019-03-06T08:26:02.675Z,105.69
2019-03-06T08:27:02.957Z,105.69
2019-03-06T08:28:03.373Z,105.69
2019-03-06T08:29:03.565Z,105.69
2019-03-06T08:30:03.806Z,105.69
2019-03-06T08:31:04.062Z,105.69
2019-03-06T08:32:04.350Z,105.69
2019-03-06T08:33:04.633Z,105.69
2019-03-06T08:34:04.913Z,105.69
2019-03-06T08:35:05.185Z,105.69
2019-03-06T08:36:05.499Z,105.69
2019-03-06T08:37:05.706Z,105.69
2019-03-06T08:38:06.006Z,105.69
2019-03-06T08:39:06.279Z,105.69
2019-03-06T08:40:06.552Z,105.69
2019-03-06T08:41:06.817Z,105.69
2019-03-06T08:42:07.097Z,105.69
2019-03-06T08:43:07.390Z,105.69
2019-03-06T08:44:07.719Z,105.69
2019-03-06T08:45:07.905Z,105.69
2019-03-06T08:46:08.184Z,105.69
2019-03-06T08:47:08.483Z,105.69
2019-03-06T08:48:08.783Z,105.69
2019-03-06T08:49:09.073Z,105.69
2019-03-06T08:50:09.330Z,105.69
2019-03-06T08:51:09.580Z,105.69
2019-03-06T08:52:09.883Z,105.69
2019-03-06T08:53:10.247Z,105.69
2019-03-06T08:54:10.542Z,105.69
2019-03-06T08:55:10.923Z,105.69
2019-03-06T08:56:10.959Z,105.69
2019-03-06T08:57:11.249Z,105.69
2019-03-06T08:58:11.560Z,105.69
2019-03-06T08:59:11.841Z,105.69
2019-03-06T09:00:12.114Z,105.69
2019-03-06T09:01:12.475Z,105.69
2019-03-06T09:02:15.443Z,105.69
2019-03-06T09:03:13.038Z,105.69
2019-03-06T09:04:13.279Z,105.69
2019-03-06T09:05:13.580Z,105.69
2019-03-06T09:06:13.844Z,105.69
2019-03-06T09:07:14.108Z,105.69
2019-03-06T09:08:14.423Z,105.69
2019-03-06T09:09:14.794Z,105.69
2019-03-06T09:10:14.977Z,105.69
2019-03-06T09:11:15.225Z,105.69
2019-03-06T09:12:15.508Z,105.69
2019-03-06T09:13:15.785Z,105.69
2019-03-06T09:14:16.059Z,105.69
2019-03-06T09:15:16.383Z,105.69
2019-03-06T09:16:16.638Z,105.69
2019-03-06T09:17:16.940Z,105.69
2019-03-06T09:18:17.148Z,105.69
2019-03-06T09:19:17.419Z,105.69
2019-03-06T09:20:17.720Z,105.69
2019-03-06T09:21:17.983Z,105.69
2019-03-06T09:22:18.259Z,105.69
2019-03-06T09:23:23.100Z,105.69
2019-03-06T09:24:18.822Z,105.69
2019-03-06T09:25:19.109Z,105.69
2019-03-06T09:26:19.439Z,105.69
2019-03-06T09:27:19.671Z,105.69
2019-03-06T09:28:20.559Z,105.69
2019-03-06T09:29:20.227Z,105.69
2019-03-06T09:30:20.509Z,105.69
2019-03-06T09:31:20.795Z,105.69
2019-03-06T09:32:21.053Z,105.69
2019-03-06T09:33:21.381Z,105.69
2019-03-06T09:34:21.731Z,105.69
2019-03-06T09:35:21.887Z,105.69
2019-03-06T09:36:22.196Z,105.69
2019-03-06T09:37:22.457Z,105.69
2019-03-06T09:38:22.972Z,105.69
2019-03-06T09:39:23.007Z,105.69
2019-03-06T09:40:23.302Z,105.69
2019-03-06T09:41:23.559Z,105.69
2019-03-06T09:42:23.968Z,105.69
2019-03-06T09:43:24.132Z,105.69
2019-03-06T09:44:24.403Z,105.69
2019-03-06T09:45:24.706Z,105.69
2019-03-06T09:46:24.954Z,105.69
2019-03-06T09:47:26.134Z,105.69
2019-03-06T09:48:25.525Z,105.69
2019-03-06T09:49:25.786Z,105.69
2019-03-06T09:50:26.132Z,105.69
2019-03-06T09:51:26.319Z,105.69
2019-03-06T09:52:26.580Z,105.69
2019-03-06T09:53:27.636Z,105.69
2019-03-06T09:54:27.196Z,105.69
2019-03-06T09:55:27.431Z,105.69
2019-03-06T09:56:27.752Z,105.69
2019-03-06T09:57:27.980Z,105.69
2019-03-06T09:58:28.315Z,105.69
2019-03-06T09:59:28.526Z,105.69
2019-03-06T10:00:28.805Z,105.69
2019-03-06T10:01:29.121Z,105.69
2019-03-06T10:02:29.394Z,105.69
2019-03-06T10:03:29.646Z,105.69
2019-03-06T10:04:29.913Z,105.69
2019-03-06T10:05:30.209Z,105.69
2019-03-06T10:06:30.575Z,105.69
2019-03-06T10:07:30.842Z,105.69
2019-03-06T10:08:31.041Z,105.69
2019-03-06T10:09:31.314Z,105.69
2019-03-06T10:10:31.589Z,105.69
2019-03-06T10:11:31.904Z,105.69
2019-03-06T10:12:32.146Z,105.69
2019-03-06T10:13:32.438Z,105.69
2019-03-06T10:14:32.702Z,105.69
2019-03-06T10:15:33.115Z,105.69
2019-03-06T10:16:33.276Z,105.69
2019-03-06T10:17:33.549Z,105.69
2019-03-06T10:18:33.831Z,105.69
2019-03-06T10:19:34.103Z,105.69
2019-03-06T10:20:34.366Z,105.69
2019-03-06T10:21:34.683Z,105.69
2019-03-06T10:22:34.944Z,105.69
2019-03-06T10:23:35.299Z,105.69
2019-03-06T10:24:35.546Z,105.69
2019-03-06T10:25:35.763Z,105.69
2019-03-06T10:26:36.075Z,105.69
2019-03-06T10:27:36.332Z,105.69
2019-03-06T10:28:36.739Z,105.69
2019-03-06T10:29:36.916Z,105.69
2019-03-06T10:30:37.192Z,105.69
2019-03-06T10:31:38.512Z,105.69
2019-03-06T10:32:37.719Z,105.69
2019-03-06T10:33:38.005Z,105.69
2019-03-06T10:34:38.293Z,105.69
2019-03-06T10:35:38.573Z,105.69
2019-03-06T10:36:38.855Z,105.69
2019-03-06T10:37:39.110Z,105.69
2019-03-06T10:38:39.403Z,105.69
2019-03-06T10:39:39.754Z,105.69
2019-03-06T10:40:40.020Z,105.69
2019-03-06T10:41:40.293Z,105.69
2019-03-06T10:42:40.503Z,105.69
2019-03-06T10:43:46.452Z,105.69
2019-03-06T10:44:42.087Z,105.69
2019-03-06T10:45:41.914Z,105.69
2019-03-06T10:46:41.657Z,105.69
2019-03-06T10:47:41.905Z,105.69
2019-03-06T10:48:42.291Z,105.69
2019-03-06T10:49:42.488Z,105.69
2019-03-06T10:50:42.734Z,105.69
2019-03-06T10:51:43.058Z,105.69
2019-03-06T10:52:43.262Z,105.69
2019-03-06T10:53:43.537Z,105.69
2019-03-06T10:55:45.112Z,105.69
2019-03-06T10:56:44.534Z,105.69
2019-03-06T10:57:44.646Z,105.69
2019-03-06T10:58:44.938Z,105.69
2019-03-06T10:59:45.250Z,105.69
2019-03-06T11:00:45.511Z,105.69
2019-03-06T11:01:45.826Z,105.69
2019-03-06T11:02:46.061Z,105.69
2019-03-06T11:03:46.340Z,105.69
2019-03-06T11:04:46.677Z,105.69
2019-03-06T11:05:46.882Z,105.69
2019-03-06T11:06:47.212Z,105.69
2019-03-06T11:07:47.437Z,105.69
2019-03-06T11:08:47.714Z,105.69
2019-03-06T11:09:48.031Z,105.69
2019-03-06T11:10:48.249Z,105.69
2019-03-06T11:11:48.577Z,105.69
2019-03-06T11:12:48.871Z,105.69
2019-03-06T11:13:49.081Z,105.69
2019-03-06T11:14:49.386Z,105.69
2019-03-06T11:15:55.391Z,105.69
2019-03-06T11:16:50.966Z,105.69
2019-03-06T11:17:50.446Z,105.69
2019-03-06T11:18:50.485Z,105.69
2019-03-06T11:19:50.789Z,105.69
2019-03-06T11:20:51.061Z,105.69
2019-03-06T11:21:51.486Z,105.69
2019-03-06T11:22:51.598Z,105.69
2019-03-06T11:23:51.879Z,105.69
2019-03-06T11:24:52.171Z,105.69
2019-03-06T11:25:52.426Z,105.69
2019-03-06T11:26:52.748Z,105.69
2019-03-06T11:27:52.968Z,105.69
2019-03-06T11:28:53.260Z,105.69
2019-03-06T11:29:53.688Z,105.69
2019-03-06T11:30:53.813Z,105.69
2019-03-06T11:31:54.100Z,105.69
2019-03-06T11:32:54.782Z,105.69
2019-03-06T11:33:54.687Z,105.69
2019-03-06T11:34:54.985Z,105.69
2019-03-06T11:35:55.243Z,105.69
2019-03-06T11:36:55.518Z,105.69
2019-03-06T11:37:55.844Z,105.69
2019-03-06T11:38:56.077Z,105.69
2019-03-06T11:39:56.367Z,105.69
2019-03-06T11:40:56.653Z,105.69
2019-03-06T11:41:56.910Z,105.69
2019-03-06T11:42:57.224Z,105.69
2019-03-06T11:43:57.450Z,105.69
2019-03-06T11:44:57.776Z,105.69
2019-03-06T11:45:58.081Z,105.69
2019-03-06T11:46:58.280Z,105.69
2019-03-06T11:47:58.575Z,105.69
2019-03-06T11:48:58.827Z,105.69
2019-03-06T11:49:59.124Z,105.69
2019-03-06T11:50:59.386Z,105.69
2019-03-06T11:51:59.671Z,105.69
2019-03-06T11:53:00.063Z,105.69
2019-03-06T11:54:00.280Z,105.69
2019-03-06T11:55:05.887Z,105.69
2019-03-06T11:56:01.769Z,105.69
2019-03-06T11:57:01.059Z,105.69
2019-03-06T11:58:01.369Z,105.69
2019-03-06T11:59:01.614Z,105.69
2019-03-06T12:00:01.920Z,105.69
2019-03-06T12:01:02.145Z,105.69
2019-03-06T12:02:02.454Z,105.69
2019-03-06T12:03:02.902Z,105.69
2019-03-06T12:04:03.002Z,105.69
2019-03-06T12:05:03.278Z,105.69
2019-03-06T12:06:03.532Z,105.69
2019-03-06T12:07:03.828Z,105.69
2019-03-06T12:08:04.136Z,105.69
2019-03-06T12:09:04.389Z,105.69
2019-03-06T12:10:04.690Z,105.69
2019-03-06T12:11:05.025Z,105.69
2019-03-06T12:12:05.211Z,105.69
2019-03-06T12:13:05.520Z,105.69
2019-03-06T12:14:05.767Z,105.69
2019-03-06T12:15:06.059Z,105.69
2019-03-06T12:16:06.328Z,105.69
2019-03-06T12:17:06.584Z,105.69
2019-03-06T12:18:06.915Z,105.69
2019-03-06T12:19:07.204Z,105.69
2019-03-06T12:20:08.393Z,130.70
2019-03-06T12:21:07.710Z,131.14
2019-03-06T12:22:07.957Z,131.83
2019-03-06T12:23:08.255Z,131.12
2019-03-06T12:24:08.529Z,131.03
2019-03-06T12:25:08.816Z,131.18
2019-03-06T12:26:14.300Z,130.44
2019-03-06T12:27:09.387Z,131.15
2019-03-06T12:28:09.640Z,131.09
2019-03-06T12:29:09.885Z,131.17
2019-03-06T12:30:10.204Z,131.35
2019-03-06T12:31:10.462Z,131.89
2019-03-06T12:32:10.780Z,132.11
2019-03-06T12:33:11.045Z,131.80